Observation data for Gail on 01/19/2019      Previous  Date  Next       Current Mesonet Observations  Soil Data  Daily Summary Page  Observations in Plain Language
KGGS 190600Z 34023G33KT 05/M03 A3003 RMK A01 T00471034  RH  056%=      5-min Rain = 0
KGGS 190605Z 34027G33KT 05/M04 A3003 RMK A01 T00481035  RH  055%=      5-min Rain = 0
KGGS 190610Z 34024G34KT 05/M04 A3004 RMK A01 T00481035  RH  055%=      5-min Rain = 0
KGGS 190615Z 34024G31KT 05/M03 A3004 RMK A01 T00471033  RH  056%=      5-min Rain = 0
KGGS 190620Z 34023G31KT 05/M03 A3004 RMK A01 T00471031  RH  057%=      5-min Rain = 0
KGGS 190625Z 34020G27KT 05/M03 A3005 RMK A01 T00461029  RH  058%=      5-min Rain = 0
KGGS 190630Z 35022G28KT 05/M03 A3005 RMK A01 T00461029  RH  059%=      5-min Rain = 0
KGGS 190635Z 34020G27KT 05/M03 A3005 RMK A01 T00451028  RH  059%=      5-min Rain = 0
KGGS 190640Z 34020G28KT 05/M03 A3005 RMK A01 T00451027  RH  060%=      5-min Rain = 0
KGGS 190645Z 34022G30KT 05/M03 A3005 RMK A01 T00451028  RH  059%=      5-min Rain = 0
KGGS 190650Z 34023G31KT 04/M03 A3006 RMK A01 T00441030  RH  059%=      5-min Rain = 0
KGGS 190655Z 34026G37KT 04/M03 A3006 RMK A01 T00441031  RH  059%=      5-min Rain = 0
KGGS 190700Z 34030G39KT 04/M03 A3006 RMK A01 T00431034  RH  058%=      5-min Rain = 0
KGGS 190705Z 34027G38KT 04/M03 A3006 RMK A01 T00411032  RH  060%=      5-min Rain = 0
KGGS 190710Z 34030G39KT 04/M03 A3007 RMK A01 T00361027  RH  064%=      5-min Rain = 0
KGGS 190715Z 34026G34KT 03/M03 A3007 RMK A01 T00341025  RH  065%=      5-min Rain = 0
KGGS 190720Z 34024G31KT 03/M03 A3007 RMK A01 T00331025  RH  066%=      5-min Rain = 0
KGGS 190725Z 34024G32KT 03/M03 A3007 RMK A01 T00331025  RH  067%=      5-min Rain = 0
KGGS 190730Z 34024G34KT 03/M03 A3008 RMK A01 T00321025  RH  066%=      5-min Rain = 0
KGGS 190735Z 34022G29KT 03/M02 A3008 RMK A01 T00311023  RH  068%=      5-min Rain = 0
KGGS 190740Z 34020G26KT 03/M02 A3008 RMK A01 T00291020  RH  071%=      5-min Rain = 0
KGGS 190745Z 34019G26KT 03/M02 A3009 RMK A01 T00261017  RH  074%=      5-min Rain = 0
KGGS 190750Z 33015KT 03/M02 A3009 RMK A01 T00251015  RH  076%=      5-min Rain = 0
KGGS 190755Z 34017G24KT 03/M02 A301 RMK A01 T00261017  RH  074%=      5-min Rain = 0
KGGS 190800Z 33017G24KT 03/M02 A301 RMK A01 T00261018  RH  073%=      5-min Rain = 0
KGGS 190805Z 33017G22KT 03/M02 A301 RMK A01 T00261018  RH  073%=      5-min Rain = 0
KGGS 190810Z 33015G23KT 03/M02 A3011 RMK A01 T00261018  RH  073%=      5-min Rain = 0
KGGS 190815Z 33015G20KT 03/M02 A3011 RMK A01 T00271018  RH  073%=      5-min Rain = 0
KGGS 190820Z 33014G19KT 03/M02 A3011 RMK A01 T00281017  RH  073%=      5-min Rain = 0
KGGS 190825Z 33012KT 03/M02 A3011 RMK A01 T00281016  RH  073%=      5-min Rain = 0
KGGS 190830Z 33012KT 03/M02 A3011 RMK A01 T00291016  RH  073%=      5-min Rain = 0
KGGS 190835Z 33013G18KT 03/M02 A3011 RMK A01 T00301016  RH  073%=      5-min Rain = 0
KGGS 190840Z 33014G19KT 03/M02 A3011 RMK A01 T00311017  RH  071%=      5-min Rain = 0
KGGS 190845Z 33015KT 03/M02 A3011 RMK A01 T00331018  RH  070%=      5-min Rain = 0
KGGS 190850Z 33016G23KT 03/M02 A3011 RMK A01 T00331020  RH  068%=      5-min Rain = 0
KGGS 190855Z 33016G21KT 03/M02 A3012 RMK A01 T00341022  RH  067%=      5-min Rain = 0
KGGS 190900Z 33017G24KT 03/M03 A3012 RMK A01 T00341025  RH  066%=      5-min Rain = 0
KGGS 190905Z 33016KT 03/M03 A3012 RMK A01 T00321026  RH  066%=      5-min Rain = 0
KGGS 190910Z 33015G20KT 03/M03 A3012 RMK A01 T00301027  RH  067%=      5-min Rain = 0
KGGS 190915Z 33019G25KT 03/M03 A3013 RMK A01 T00291028  RH  067%=      5-min Rain = 0
KGGS 190920Z 33015G22KT 03/M03 A3013 RMK A01 T00281029  RH  066%=      5-min Rain = 0
KGGS 190925Z 33015G20KT 03/M03 A3013 RMK A01 T00261029  RH  067%=      5-min Rain = 0
KGGS 190930Z 33016G22KT 03/M03 A3013 RMK A01 T00261030  RH  067%=      5-min Rain = 0
KGGS 190935Z 33016G21KT 03/M03 A3013 RMK A01 T00261030  RH  067%=      5-min Rain = 0
KGGS 190940Z 33014G20KT 03/M03 A3014 RMK A01 T00251031  RH  067%=      5-min Rain = 0
KGGS 190945Z 33013G18KT 02/M03 A3014 RMK A01 T00241030  RH  068%=      5-min Rain = 0
KGGS 190950Z 32015G20KT 02/M03 A3014 RMK A01 T00231031  RH  068%=      5-min Rain = 0
KGGS 190955Z 33018G30KT 02/M03 A3014 RMK A01 T00241033  RH  066%=      5-min Rain = 0
KGGS 191000Z 33020G25KT 03/M04 A3014 RMK A01 T00251038  RH  063%=      5-min Rain = 0
KGGS 191005Z 33020G28KT 03/M04 A3015 RMK A01 T00251039  RH  063%=      5-min Rain = 0
KGGS 191010Z 33017G23KT 02/M04 A3015 RMK A01 T00241038  RH  064%=      5-min Rain = 0
KGGS 191015Z 33018KT 02/M04 A3015 RMK A01 T00231038  RH  064%=      5-min Rain = 0
KGGS 191020Z 33019G26KT 02/M04 A3015 RMK A01 T00241039  RH  064%=      5-min Rain = 0
KGGS 191025Z 33018G25KT 02/M04 A3016 RMK A01 T00231040  RH  064%=      5-min Rain = 0
KGGS 191030Z 33019G26KT 02/M04 A3016 RMK A01 T00231040  RH  063%=      5-min Rain = 0
KGGS 191035Z 33017G25KT 02/M04 A3016 RMK A01 T00221041  RH  063%=      5-min Rain = 0
KGGS 191040Z 33019G25KT 02/M04 A3016 RMK A01 T00221041  RH  063%=      5-min Rain = 0
KGGS 191045Z 34016G23KT 02/M04 A3017 RMK A01 T00211042  RH  063%=      5-min Rain = 0
KGGS 191050Z 33015G21KT 02/M04 A3017 RMK A01 T00191041  RH  065%=      5-min Rain = 0
KGGS 191055Z 33013KT 02/M04 A3017 RMK A01 T00191041  RH  065%=      5-min Rain = 0
KGGS 191100Z 32012KT 02/M04 A3017 RMK A01 T00171040  RH  066%=      5-min Rain = 0
KGGS 191105Z 32014G20KT 02/M04 A3017 RMK A01 T00181040  RH  066%=      5-min Rain = 0
KGGS 191110Z 33017G26KT 02/M04 A3017 RMK A01 T00191040  RH  065%=      5-min Rain = 0
KGGS 191115Z 33021G28KT 02/M04 A3017 RMK A01 T00201041  RH  064%=      5-min Rain = 0
KGGS 191120Z 34021G27KT 02/M04 A3017 RMK A01 T00191043  RH  064%=      5-min Rain = 0
KGGS 191125Z 34021G29KT 02/M04 A3018 RMK A01 T00191044  RH  064%=      5-min Rain = 0
KGGS 191130Z 34019G28KT 02/M04 A3018 RMK A01 T00171044  RH  064%=      5-min Rain = 0
KGGS 191135Z 33019G26KT 02/M04 A3018 RMK A01 T00161044  RH  064%=      5-min Rain = 0
KGGS 191140Z 33020G25KT 02/M04 A3018 RMK A01 T00161044  RH  064%=      5-min Rain = 0
KGGS 191145Z 34021G29KT 02/M04 A3018 RMK A01 T00171044  RH  064%=      5-min Rain = 0
KGGS 191150Z 34020G26KT 02/M04 A3018 RMK A01 T00171044  RH  064%=      5-min Rain = 0
KGGS 191155Z 34020G27KT 02/M04 A3018 RMK A01 T00171044  RH  064%=      5-min Rain = 0
KGGS 191200Z 34019G25KT 02/M04 A3018 RMK A01 T00171044  RH  064%=      5-min Rain = 0
KGGS 191205Z 34017G25KT 02/M04 A3019 RMK A01 T00161043  RH  065%=      5-min Rain = 0
KGGS 191210Z 34017G24KT 02/M04 A3019 RMK A01 T00171043  RH  065%=      5-min Rain = 0
KGGS 191215Z 34016G22KT 02/M04 A3019 RMK A01 T00161042  RH  065%=      5-min Rain = 0
KGGS 191220Z 34017G23KT 02/M04 A3019 RMK A01 T00161042  RH  066%=      5-min Rain = 0
KGGS 191225Z 34016G23KT 02/M04 A3019 RMK A01 T00161042  RH  066%=      5-min Rain = 0
KGGS 191230Z 34015G22KT 02/M04 A302 RMK A01 T00161041  RH  066%=      5-min Rain = 0
KGGS 191235Z 34016G21KT 02/M04 A302 RMK A01 T00161041  RH  066%=      5-min Rain = 0
KGGS 191240Z 34015G20KT 02/M04 A302 RMK A01 T00161040  RH  067%=      5-min Rain = 0
KGGS 191245Z 34018G24KT 02/M04 A302 RMK A01 T00171040  RH  066%=      5-min Rain = 0
KGGS 191250Z 34016G22KT 02/M04 A3021 RMK A01 T00161040  RH  066%=      5-min Rain = 0
KGGS 191255Z 34016G23KT 02/M04 A3021 RMK A01 T00161040  RH  067%=      5-min Rain = 0
KGGS 191300Z 34017G24KT 02/M04 A3021 RMK A01 T00161040  RH  067%=      5-min Rain = 0
KGGS 191305Z 35015G20KT 02/M04 A3021 RMK A01 T00151040  RH  067%=      5-min Rain = 0
KGGS 191310Z 35015KT 02/M04 A3021 RMK A01 T00151040  RH  067%=      5-min Rain = 0
KGGS 191315Z 35015KT 02/M04 A3021 RMK A01 T00151040  RH  067%=      5-min Rain = 0
KGGS 191320Z 35016G22KT 02/M04 A3022 RMK A01 T00161040  RH  066%=      5-min Rain = 0
KGGS 191325Z 35014G19KT 02/M04 A3022 RMK A01 T00151041  RH  067%=      5-min Rain = 0
KGGS 191330Z 34015G21KT 02/M04 A3023 RMK A01 T00151041  RH  067%=      5-min Rain = 0
KGGS 191335Z 34015G21KT 02/M04 A3023 RMK A01 T00161041  RH  066%=      5-min Rain = 0
KGGS 191340Z 34014KT 02/M04 A3023 RMK A01 T00161041  RH  066%=      5-min Rain = 0
KGGS 191345Z 34012KT 02/M04 A3024 RMK A01 T00151041  RH  066%=      5-min Rain = 0
KGGS 191350Z 34012KT 02/M04 A3024 RMK A01 T00151041  RH  067%=      5-min Rain = 0
KGGS 191355Z 33013G19KT 02/M04 A3025 RMK A01 T00151041  RH  067%=      5-min Rain = 0
KGGS 191400Z 33013G18KT 01/M04 A3026 RMK A01 T00141040  RH  067%=      5-min Rain = 0
KGGS 191405Z 33012G17KT 01/M04 A3026 RMK A01 T00141040  RH  067%=      5-min Rain = 0
KGGS 191410Z 33011KT 01/M04 A3027 RMK A01 T00141039  RH  068%=      5-min Rain = 0
KGGS 191415Z 33012KT 02/M04 A3027 RMK A01 T00151039  RH  068%=      5-min Rain = 0
KGGS 191420Z 32010KT 02/M04 A3028 RMK A01 T00171038  RH  067%=      5-min Rain = 0
KGGS 191425Z 32008KT 02/M04 A3028 RMK A01 T00171038  RH  067%=      5-min Rain = 0
KGGS 191430Z 32009KT 02/M04 A3028 RMK A01 T00191037  RH  067%=      5-min Rain = 0
KGGS 191435Z 33008KT 02/M04 A3028 RMK A01 T00211037  RH  066%=      5-min Rain = 0
KGGS 191440Z 32009G14KT 03/M04 A3028 RMK A01 T00261035  RH  064%=      5-min Rain = 0
KGGS 191445Z 33011KT 03/M04 A3028 RMK A01 T00311035  RH  062%=      5-min Rain = 0
KGGS 191450Z 33010G15KT 04/M03 A3028 RMK A01 T00351034  RH  061%=      5-min Rain = 0
KGGS 191455Z 33011KT 04/M03 A3029 RMK A01 T00381034  RH  060%=      5-min Rain = 0
KGGS 191500Z 32013G18KT 04/M04 A3029 RMK A01 T00411035  RH  058%=      5-min Rain = 0
KGGS 191505Z 33014G21KT 04/M04 A3029 RMK A01 T00441035  RH  057%=      5-min Rain = 0
KGGS 191510Z 33014G20KT 05/M04 A303 RMK A01 T00461035  RH  056%=      5-min Rain = 0
KGGS 191515Z 34014G21KT 05/M04 A303 RMK A01 T00481035  RH  055%=      5-min Rain = 0
KGGS 191520Z 34014G20KT 05/M04 A303 RMK A01 T00491036  RH  054%=      5-min Rain = 0
KGGS 191525Z 34014G19KT 05/M04 A3031 RMK A01 T00501036  RH  054%=      5-min Rain = 0
KGGS 191530Z 34015G20KT 05/M04 A3031 RMK A01 T00521037  RH  053%=      5-min Rain = 0
KGGS 191535Z 35016G22KT 05/M04 A3032 RMK A01 T00541037  RH  052%=      5-min Rain = 0
KGGS 191540Z 35014KT 06/M04 A3032 RMK A01 T00571037  RH  051%=      5-min Rain = 0
KGGS 191545Z 34014G21KT 06/M04 A3032 RMK A01 T00601037  RH  050%=      5-min Rain = 0
KGGS 191550Z 35017G24KT 06/M04 A3032 RMK A01 T00601039  RH  049%=      5-min Rain = 0
KGGS 191555Z 34015KT 06/M04 A3032 RMK A01 T00621038  RH  049%=      5-min Rain = 0
KGGS 191600Z 35014G21KT 07/M04 A3033 RMK A01 T00661037  RH  048%=      5-min Rain = 0
KGGS 191605Z 35017G24KT 07/M04 A3033 RMK A01 T00651038  RH  048%=      5-min Rain = 0
KGGS 191610Z 36018G26KT 06/M04 A3033 RMK A01 T00621039  RH  049%=      5-min Rain = 0
KGGS 191615Z 36017G23KT 06/M04 A3033 RMK A01 T00631037  RH  049%=      5-min Rain = 0
KGGS 191620Z 35017KT 06/M04 A3033 RMK A01 T00631037  RH  049%=      5-min Rain = 0
KGGS 191625Z 35015G23KT 07/M04 A3033 RMK A01 T00671035  RH  048%=      5-min Rain = 0
KGGS 191630Z 35015G23KT 07/M04 A3033 RMK A01 T00681036  RH  048%=      5-min Rain = 0
KGGS 191635Z 34017G23KT 07/M04 A3033 RMK A01 T00731036  RH  046%=      5-min Rain = 0
KGGS 191640Z 35016G21KT 07/M04 A3033 RMK A01 T00741037  RH  046%=      5-min Rain = 0
KGGS 191645Z 36013G20KT 08/M03 A3033 RMK A01 T00781034  RH  045%=      5-min Rain = 0
KGGS 191650Z 35014G19KT 08/M03 A3033 RMK A01 T00821034  RH  044%=      5-min Rain = 0
KGGS 191655Z 35017G24KT 08/M04 A3032 RMK A01 T00791038  RH  044%=      5-min Rain = 0
KGGS 191700Z 35015KT 08/M04 A3033 RMK A01 T00811039  RH  043%=      5-min Rain = 0
KGGS 191705Z 00016G21KT 08/M04 A3033 RMK A01 T00811040  RH  043%=      5-min Rain = 0
KGGS 191710Z 35013KT 08/M04 A3033 RMK A01 T00821038  RH  043%=      5-min Rain = 0
KGGS 191715Z 00015G20KT 08/M04 A3033 RMK A01 T00841038  RH  042%=      5-min Rain = 0
KGGS 191720Z 36015G20KT 09/M04 A3032 RMK A01 T00851038  RH  042%=      5-min Rain = 0
KGGS 191725Z 36015G20KT 09/M04 A3033 RMK A01 T00871038  RH  042%=      5-min Rain = 0
KGGS 191730Z 35013KT 09/M04 A3033 RMK A01 T00891036  RH  041%=      5-min Rain = 0
KGGS 191735Z 35017G23KT 09/M04 A3032 RMK A01 T00911038  RH  040%=      5-min Rain = 0
KGGS 191740Z 34018G24KT 09/M04 A3032 RMK A01 T00911041  RH  039%=      5-min Rain = 0
KGGS 191745Z 35016G21KT 09/M04 A3033 RMK A01 T00891040  RH  040%=      5-min Rain = 0
KGGS 191750Z 35016G21KT 09/M04 A3032 RMK A01 T00921039  RH  039%=      5-min Rain = 0
KGGS 191755Z 35015G20KT 10/M04 A3032 RMK A01 T00951038  RH  039%=      5-min Rain = 0
KGGS 191800Z 35018KT 09/M04 A3032 RMK A01 T00941042  RH  038%=      5-min Rain = 0
KGGS 191805Z 35017G23KT 09/M04 A3032 RMK A01 T00931041  RH  039%=      5-min Rain = 0
KGGS 191810Z 36016G21KT 10/M04 A3032 RMK A01 T00961039  RH  039%=      5-min Rain = 0
KGGS 191815Z 35015G21KT 10/M04 A3031 RMK A01 T00991037  RH  038%=      5-min Rain = 0
KGGS 191820Z 35014G21KT 10/M04 A3031 RMK A01 T01011036  RH  038%=      5-min Rain = 0
KGGS 191825Z 36015G21KT 10/M04 A3031 RMK A01 T01011036  RH  038%=      5-min Rain = 0
KGGS 191830Z 35016G24KT 10/M04 A3031 RMK A01 T01031036  RH  038%=      5-min Rain = 0
KGGS 191835Z 35017G22KT 10/M04 A3031 RMK A01 T01021037  RH  037%=      5-min Rain = 0
KGGS 191840Z 34017G22KT 10/M04 A3031 RMK A01 T01031036  RH  038%=      5-min Rain = 0
KGGS 191845Z 35016G21KT 11/M04 A303 RMK A01 T01051036  RH  037%=      5-min Rain = 0
KGGS 191850Z 35016G22KT 11/M04 A303 RMK A01 T01061037  RH  037%=      5-min Rain = 0
KGGS 191855Z 36018G24KT 11/M04 A3029 RMK A01 T01071037  RH  036%=      5-min Rain = 0
KGGS 191900Z 35018G24KT 11/M04 A3029 RMK A01 T01061037  RH  037%=      5-min Rain = 0
KGGS 191905Z 34018G24KT 11/M04 A3029 RMK A01 T01061037  RH  037%=      5-min Rain = 0
KGGS 191910Z 35017G23KT 11/M04 A3029 RMK A01 T01071036  RH  037%=      5-min Rain = 0
KGGS 191915Z 34016G21KT 11/M03 A3029 RMK A01 T01091034  RH  037%=      5-min Rain = 0
KGGS 191920Z 34017G23KT 11/M03 A3029 RMK A01 T01111034  RH  036%=      5-min Rain = 0
KGGS 191925Z 34015G24KT 11/M03 A3029 RMK A01 T01131034  RH  036%=      5-min Rain = 0
KGGS 191930Z 34015G21KT 12/M03 A3029 RMK A01 T01161033  RH  035%=      5-min Rain = 0
KGGS 191935Z 33014G19KT 12/M03 A3029 RMK A01 T01201031  RH  035%=      5-min Rain = 0
KGGS 191940Z 36014G20KT 12/M03 A3028 RMK A01 T01221031  RH  034%=      5-min Rain = 0
KGGS 191945Z 35014G19KT 12/M03 A3028 RMK A01 T01171034  RH  035%=      5-min Rain = 0
KGGS 191950Z 35014G19KT 12/M03 A3028 RMK A01 T01191031  RH  035%=      5-min Rain = 0
KGGS 191955Z 35015G22KT 12/M03 A3028 RMK A01 T01221033  RH  034%=      5-min Rain = 0
KGGS 192000Z 34016G26KT 12/M03 A3028 RMK A01 T01241032  RH  034%=      5-min Rain = 0
KGGS 192005Z 34014G20KT 12/M03 A3028 RMK A01 T01231034  RH  034%=      5-min Rain = 0
KGGS 192010Z 35015G20KT 13/M03 A3027 RMK A01 T01271032  RH  033%=      5-min Rain = 0
KGGS 192015Z 35017G24KT 12/M03 A3027 RMK A01 T01231034  RH  034%=      5-min Rain = 0
KGGS 192020Z 33014G20KT 13/M03 A3027 RMK A01 T01311032  RH  032%=      5-min Rain = 0
KGGS 192025Z 34015KT 12/M03 A3027 RMK A01 T01241033  RH  034%=      5-min Rain = 0
KGGS 192030Z 33015G21KT 13/M03 A3026 RMK A01 T01261033  RH  033%=      5-min Rain = 0
KGGS 192035Z 32012G19KT 13/M03 A3026 RMK A01 T01261034  RH  033%=      5-min Rain = 0
KGGS 192040Z 34015G21KT 13/M03 A3026 RMK A01 T01281034  RH  032%=      5-min Rain = 0
KGGS 192045Z 33014G20KT 13/M03 A3026 RMK A01 T01321031  RH  032%=      5-min Rain = 0
KGGS 192050Z 33014G23KT 13/M03 A3026 RMK A01 T01301032  RH  032%=      5-min Rain = 0
KGGS 192055Z 33015G22KT 13/M04 A3026 RMK A01 T01301035  RH  032%=      5-min Rain = 0
KGGS 192100Z 33017G24KT 13/M04 A3026 RMK A01 T01271036  RH  032%=      5-min Rain = 0
KGGS 192105Z 33016G21KT 13/M03 A3025 RMK A01 T01301034  RH  032%=      5-min Rain = 0
KGGS 192110Z 33016KT 13/M04 A3025 RMK A01 T01291036  RH  032%=      5-min Rain = 0
KGGS 192115Z 33016KT 13/M04 A3025 RMK A01 T01301035  RH  032%=      5-min Rain = 0
KGGS 192120Z 34013G19KT 13/M04 A3025 RMK A01 T01291035  RH  032%=      5-min Rain = 0
KGGS 192125Z 34017G23KT 13/M03 A3025 RMK A01 T01321034  RH  032%=      5-min Rain = 0
KGGS 192130Z 34015G22KT 13/M04 A3025 RMK A01 T01301035  RH  032%=      5-min Rain = 0
KGGS 192135Z 33013G19KT 13/M03 A3025 RMK A01 T01311034  RH  032%=      5-min Rain = 0
KGGS 192140Z 33017KT 13/M04 A3025 RMK A01 T01311038  RH  031%=      5-min Rain = 0
KGGS 192145Z 33013KT 13/M04 A3025 RMK A01 T01311035  RH  031%=      5-min Rain = 0
KGGS 192150Z 34014G19KT 13/M04 A3025 RMK A01 T01311036  RH  031%=      5-min Rain = 0
KGGS 192155Z 33014KT 13/M04 A3025 RMK A01 T01331035  RH  031%=      5-min Rain = 0
KGGS 192200Z 34013G19KT 13/M03 A3025 RMK A01 T01341034  RH  031%=      5-min Rain = 0
KGGS 192205Z 34013KT 13/M04 A3025 RMK A01 T01311035  RH  032%=      5-min Rain = 0
KGGS 192210Z 35012KT 13/M04 A3025 RMK A01 T01321035  RH  031%=      5-min Rain = 0
KGGS 192215Z 35014KT 13/M04 A3025 RMK A01 T01311037  RH  031%=      5-min Rain = 0
KGGS 192220Z 34012KT 13/M04 A3025 RMK A01 T01331038  RH  030%=      5-min Rain = 0
KGGS 192225Z 34013KT 13/M04 A3025 RMK A01 T01311037  RH  031%=      5-min Rain = 0
KGGS 192230Z 34014KT 13/M04 A3025 RMK A01 T01301037  RH  031%=      5-min Rain = 0
KGGS 192235Z 35013G19KT 13/M04 A3025 RMK A01 T01301037  RH  031%=      5-min Rain = 0
KGGS 192240Z 35013G19KT 13/M04 A3025 RMK A01 T01291037  RH  031%=      5-min Rain = 0
KGGS 192245Z 33013G18KT 13/M04 A3025 RMK A01 T01301038  RH  031%=      5-min Rain = 0
KGGS 192250Z 34012KT 13/M04 A3025 RMK A01 T01291039  RH  031%=      5-min Rain = 0
KGGS 192255Z 34010KT 13/M04 A3025 RMK A01 T01291038  RH  031%=      5-min Rain = 0
KGGS 192300Z 35013G19KT 13/M04 A3025 RMK A01 T01281039  RH  031%=      5-min Rain = 0
KGGS 192305Z 35011G16KT 13/M04 A3025 RMK A01 T01261039  RH  031%=      5-min Rain = 0
KGGS 192310Z 35011KT 13/M04 A3025 RMK A01 T01261040  RH  031%=      5-min Rain = 0
KGGS 192315Z 36010KT 12/M04 A3025 RMK A01 T01241039  RH  032%=      5-min Rain = 0
KGGS 192320Z 35011KT 12/M04 A3025 RMK A01 T01231039  RH  032%=      5-min Rain = 0
KGGS 192325Z 35011KT 12/M04 A3025 RMK A01 T01211039  RH  033%=      5-min Rain = 0
KGGS 192330Z 36009KT 12/M04 A3025 RMK A01 T01191038  RH  033%=      5-min Rain = 0
KGGS 192335Z 35010KT 12/M04 A3025 RMK A01 T01181039  RH  033%=      5-min Rain = 0
KGGS 192340Z 35009KT 11/M04 A3025 RMK A01 T01141038  RH  034%=      5-min Rain = 0
KGGS 192345Z 00009KT 11/M04 A3025 RMK A01 T01121039  RH  034%=      5-min Rain = 0
KGGS 192350Z 36007KT 11/M04 A3025 RMK A01 T01091039  RH  035%=      5-min Rain = 0
KGGS 192355Z 00006KT 10/M04 A3025 RMK A01 T01031039  RH  037%=      5-min Rain = 0
KGGS 200000Z 01006KT 10/M04 A3025 RMK A01 T00971039  RH  038%=      5-min Rain = 0
KGGS 200005Z 01006KT 09/M04 A3025 RMK A01 T00931039  RH  039%=      5-min Rain = 0
KGGS 200010Z 01005KT 09/M04 A3025 RMK A01 T00871039  RH  041%=      5-min Rain = 0
KGGS 200015Z 01005KT 08/M04 A3026 RMK A01 T00831040  RH  042%=      5-min Rain = 0
KGGS 200020Z 01004KT 08/M04 A3026 RMK A01 T00811040  RH  042%=      5-min Rain = 0
KGGS 200025Z 02004KT 08/M04 A3026 RMK A01 T00791040  RH  043%=      5-min Rain = 0
KGGS 200030Z 01004KT 08/M04 A3026 RMK A01 T00781040  RH  043%=      5-min Rain = 0
KGGS 200035Z 02004KT 08/M04 A3026 RMK A01 T00771040  RH  044%=      5-min Rain = 0
KGGS 200040Z 02005KT 07/M04 A3026 RMK A01 T00741040  RH  044%=      5-min Rain = 0
KGGS 200045Z 02005KT 07/M04 A3026 RMK A01 T00701039  RH  046%=      5-min Rain = 0
KGGS 200050Z 02004KT 07/M04 A3027 RMK A01 T00681039  RH  047%=      5-min Rain = 0
KGGS 200055Z 02004KT 07/M04 A3027 RMK A01 T00671039  RH  047%=      5-min Rain = 0
KGGS 200100Z 02004KT 07/M04 A3027 RMK A01 T00671039  RH  047%=      5-min Rain = 0
KGGS 200105Z 02004KT 07/M04 A3027 RMK A01 T00661040  RH  047%=      5-min Rain = 0
KGGS 200110Z 02004KT 07/M04 A3027 RMK A01 T00681040  RH  046%=      5-min Rain = 0
KGGS 200115Z 01004KT 07/M04 A3027 RMK A01 T00691040  RH  046%=      5-min Rain = 0
KGGS 200120Z 01005KT 07/M04 A3027 RMK A01 T00691042  RH  045%=      5-min Rain = 0
KGGS 200125Z 02006KT 07/M04 A3027 RMK A01 T00651042  RH  047%=      5-min Rain = 0
KGGS 200130Z 02005KT 06/M04 A3027 RMK A01 T00621042  RH  048%=      5-min Rain = 0
KGGS 200135Z 02004KT 07/M04 A3027 RMK A01 T00651042  RH  047%=      5-min Rain = 0
KGGS 200140Z 02004KT 06/M04 A3027 RMK A01 T00621042  RH  047%=      5-min Rain = 0
KGGS 200145Z 02005KT 06/M04 A3027 RMK A01 T00591043  RH  048%=      5-min Rain = 0
KGGS 200150Z 03006KT 05/M04 A3027 RMK A01 T00521044  RH  050%=      5-min Rain = 0
KGGS 200155Z 03006KT 05/M04 A3028 RMK A01 T00481044  RH  052%=      5-min Rain = 0
KGGS 200200Z 03006KT 05/M04 A3028 RMK A01 T00471042  RH  052%=      5-min Rain = 0
KGGS 200205Z 03007KT 05/M04 A3028 RMK A01 T00461041  RH  053%=      5-min Rain = 0
KGGS 200210Z 04007KT 05/M04 A3028 RMK A01 T00451040  RH  055%=      5-min Rain = 0
KGGS 200215Z 06005KT 05/M04 A3027 RMK A01 T00461040  RH  054%=      5-min Rain = 0
KGGS 200220Z 08004KT 05/M04 A3027 RMK A01 T00501040  RH  052%=      5-min Rain = 0
KGGS 200225Z 08005KT 05/M04 A3027 RMK A01 T00531041  RH  051%=      5-min Rain = 0
KGGS 200230Z 09006KT 05/M04 A3026 RMK A01 T00491042  RH  052%=      5-min Rain = 0
KGGS 200235Z 08006KT 05/M04 A3026 RMK A01 T00461042  RH  053%=      5-min Rain = 0
KGGS 200240Z 07006KT 05/M04 A3027 RMK A01 T00451042  RH  053%=      5-min Rain = 0
KGGS 200245Z 06007KT 05/M04 A3027 RMK A01 T00461044  RH  052%=      5-min Rain = 0
KGGS 200250Z 05007KT 04/M04 A3027 RMK A01 T00431044  RH  054%=      5-min Rain = 0
KGGS 200255Z 05006KT 04/M04 A3027 RMK A01 T00401043  RH  055%=      5-min Rain = 0
KGGS 200300Z 05004KT 04/M04 A3028 RMK A01 T00401044  RH  055%=      5-min Rain = 0
KGGS 200305Z 05001KT 03/M05 A3028 RMK A01 T00311045  RH  057%=      5-min Rain = 0
KGGS 200310Z 06003KT 03/M04 A3028 RMK A01 T00311044  RH  058%=      5-min Rain = 0
KGGS 200315Z 05003KT 03/M04 A3029 RMK A01 T00321044  RH  057%=      5-min Rain = 0
KGGS 200320Z 08002KT 03/M04 A3029 RMK A01 T00331044  RH  057%=      5-min Rain = 0
KGGS 200325Z 09001KT 04/M04 A303 RMK A01 T00361044  RH  056%=      5-min Rain = 0
KGGS 200330Z 09000KT 04/M05 A303 RMK A01 T00351045  RH  056%=      5-min Rain = 0
KGGS 200335Z 07001KT 04/M05 A303 RMK A01 T00361045  RH  056%=      5-min Rain = 0
KGGS 200340Z 09003KT 03/M05 A303 RMK A01 T00301047  RH  057%=      5-min Rain = 0
KGGS 200345Z 10004KT 03/M05 A3029 RMK A01 T00261046  RH  059%=      5-min Rain = 0
KGGS 200350Z 12004KT 03/M05 A3029 RMK A01 T00271046  RH  059%=      5-min Rain = 0
KGGS 200355Z 11005KT 03/M05 A3029 RMK A01 T00281046  RH  058%=      5-min Rain = 0
KGGS 200400Z 12005KT 03/M05 A3029 RMK A01 T00261046  RH  059%=      5-min Rain = 0
KGGS 200405Z 12003KT 02/M05 A303 RMK A01 T00201046  RH  062%=      5-min Rain = 0
KGGS 200410Z 11004KT 02/M05 A303 RMK A01 T00211045  RH  062%=      5-min Rain = 0
KGGS 200415Z 11007KT 02/M05 A3029 RMK A01 T00201045  RH  062%=      5-min Rain = 0
KGGS 200420Z 11006KT 02/M04 A3029 RMK A01 T00231041  RH  063%=      5-min Rain = 0
KGGS 200425Z 12006KT 02/M04 A3028 RMK A01 T00241041  RH  062%=      5-min Rain = 0
KGGS 200430Z 13006KT 02/M04 A3028 RMK A01 T00211041  RH  063%=      5-min Rain = 0
KGGS 200435Z 13005KT 02/M04 A3028 RMK A01 T00191043  RH  064%=      5-min Rain = 0
KGGS 200440Z 13005KT 02/M04 A3029 RMK A01 T00161044  RH  065%=      5-min Rain = 0
KGGS 200445Z 13005KT 01/M05 A3029 RMK A01 T00141045  RH  065%=      5-min Rain = 0
KGGS 200450Z 13005KT 01/M05 A3029 RMK A01 T00141046  RH  065%=      5-min Rain = 0
KGGS 200455Z 14004KT 01/M05 A3029 RMK A01 T00141045  RH  065%=      5-min Rain = 0
KGGS 200500Z 13003KT 02/M05 A303 RMK A01 T00151045  RH  064%=      5-min Rain = 0
KGGS 200505Z 13004KT 02/M05 A303 RMK A01 T00151046  RH  064%=      5-min Rain = 0
KGGS 200510Z 13005KT 01/M05 A303 RMK A01 T00141046  RH  064%=      5-min Rain = 0
KGGS 200515Z 14004KT 01/M05 A303 RMK A01 T00101048  RH  066%=      5-min Rain = 0
KGGS 200520Z 14003KT 01/M05 A3031 RMK A01 T00081047  RH  067%=      5-min Rain = 0
KGGS 200525Z 16004KT 01/M05 A303 RMK A01 T00061048  RH  067%=      5-min Rain = 0
KGGS 200530Z 16004KT 00/M05 A303 RMK A01 T00021049  RH  069%=      5-min Rain = 0
KGGS 200535Z 16005KT 00/M05 A303 RMK A01 T00041046  RH  070%=      5-min Rain = 0
KGGS 200540Z 16004KT 01/M05 A303 RMK A01 T00061045  RH  069%=      5-min Rain = 0
KGGS 200545Z 15004KT 01/M05 A3031 RMK A01 T00061046  RH  068%=      5-min Rain = 0
KGGS 200550Z 16004KT 01/M05 A3031 RMK A01 T00051046  RH  069%=      5-min Rain = 0
KGGS 200555Z 17003KT 01/M05 A3031 RMK A01 T00071046  RH  068%=      5-min Rain = 0

Page generated in 0.0096 seconds.